createdAt,value
2022-08-30T00:01:42.470Z,5.22
2022-08-30T00:05:44.627Z,5.68
2022-08-30T00:09:46.108Z,5.82
2022-08-30T00:13:49.831Z,5.65
2022-08-30T00:17:51.320Z,4.68
2022-08-30T00:21:52.744Z,5.80
2022-08-30T00:25:54.262Z,7.10
2022-08-30T00:29:56.633Z,6.55
2022-08-30T00:33:58.051Z,7.55
2022-08-30T00:37:59.765Z,6.28
2022-08-30T00:42:03.837Z,6.35
2022-08-30T00:46:08.506Z,7.07
2022-08-30T00:50:11.405Z,6.53
2022-08-30T00:54:12.951Z,6.07
2022-08-30T00:58:21.729Z,6.88
2022-08-30T01:02:23.951Z,5.85
2022-08-30T01:06:26.294Z,5.85
2022-08-30T01:10:37.461Z,7.03
2022-08-30T01:14:39.295Z,5.30
2022-08-30T01:18:40.855Z,6.60
2022-08-30T01:22:51.377Z,6.50
2022-08-30T01:26:52.821Z,6.30
2022-08-30T01:30:54.441Z,6.82
2022-08-30T01:34:56.912Z,7.05
2022-08-30T01:38:59.003Z,6.38
2022-08-30T01:43:00.515Z,6.05
2022-08-30T01:47:02.108Z,6.45
2022-08-30T01:51:04.315Z,7.80
2022-08-30T01:55:07.114Z,6.93
2022-08-30T01:59:08.597Z,6.05
2022-08-30T02:03:10.116Z,10.25
2022-08-30T02:07:11.818Z,15.02
2022-08-30T02:11:14.910Z,11.10
2022-08-30T02:15:16.583Z,7.88
2022-08-30T02:19:18.097Z,8.77
2022-08-30T02:23:19.748Z,10.55
2022-08-30T02:27:21.238Z,9.15
2022-08-30T02:31:23.143Z,7.97
2022-08-30T02:35:24.872Z,7.40
2022-08-30T02:39:26.459Z,6.10
2022-08-30T02:43:28.136Z,6.85
2022-08-30T02:47:29.616Z,6.82
2022-08-30T02:51:31.269Z,6.75
2022-08-30T02:55:32.806Z,6.78
2022-08-30T02:59:36.961Z,5.82
2022-08-30T03:03:38.723Z,6.15
2022-08-30T03:07:41.334Z,6.03
2022-08-30T03:11:42.775Z,6.75
2022-08-30T03:15:44.253Z,7.38
2022-08-30T03:19:46.223Z,7.05
2022-08-30T03:23:47.686Z,7.35
2022-08-30T03:27:50.664Z,6.53
2022-08-30T03:31:53.743Z,6.80
2022-08-30T03:35:55.755Z,6.47
2022-08-30T03:39:57.455Z,7.32
2022-08-30T03:44:00.452Z,6.90
2022-08-30T03:48:03.610Z,7.28
2022-08-30T03:52:05.435Z,6.55
2022-08-30T03:56:07.306Z,6.60
2022-08-30T04:00:09.314Z,6.55
2022-08-30T04:04:10.753Z,8.00
2022-08-30T04:08:12.188Z,6.93
2022-08-30T04:12:13.758Z,7.80
2022-08-30T04:16:20.215Z,7.53
2022-08-30T04:20:21.720Z,7.18
2022-08-30T04:24:23.483Z,8.32
2022-08-30T04:28:24.974Z,7.60
2022-08-30T04:32:26.582Z,7.68
2022-08-30T04:36:28.076Z,7.15
2022-08-30T04:40:29.604Z,7.32
2022-08-30T04:44:32.094Z,6.90
2022-08-30T04:48:33.986Z,7.28
2022-08-30T04:52:35.525Z,8.23
2022-08-30T04:56:36.899Z,7.65
2022-08-30T05:00:38.746Z,8.80
2022-08-30T05:05:03.042Z,8.85
2022-08-30T05:09:05.004Z,8.30
2022-08-30T05:13:06.797Z,7.25
2022-08-30T05:17:08.382Z,7.60
2022-08-30T05:21:22.268Z,8.70
2022-08-30T05:25:26.034Z,9.20
2022-08-30T05:29:28.127Z,7.68
2022-08-30T05:33:29.799Z,9.52
2022-08-30T05:37:31.246Z,9.50
2022-08-30T05:41:33.232Z,10.07
2022-08-30T05:45:35.339Z,8.82
2022-08-30T05:49:36.784Z,8.95
2022-08-30T05:53:39.773Z,10.55
2022-08-30T05:57:41.571Z,11.50
2022-08-30T06:01:46.092Z,10.32
2022-08-30T06:09:49.059Z,10.50
2022-08-30T06:13:51.881Z,10.05
2022-08-30T06:17:53.387Z,9.93
2022-08-30T06:21:54.968Z,10.43
2022-08-30T06:25:57.146Z,10.70
2022-08-30T06:29:58.620Z,12.13
2022-08-30T06:34:00.168Z,12.02
2022-08-30T06:38:02.057Z,12.13
2022-08-30T06:42:03.692Z,10.90
2022-08-30T06:46:07.553Z,11.30
2022-08-30T06:50:11.878Z,11.65
2022-08-30T06:54:13.570Z,11.52
2022-08-30T06:58:15.326Z,11.55
2022-08-30T07:02:17.128Z,12.10
2022-08-30T07:06:19.347Z,10.90
2022-08-30T07:10:21.546Z,10.57
2022-08-30T07:14:23.189Z,10.60
2022-08-30T07:18:43.068Z,10.32
2022-08-30T07:22:44.463Z,8.77
2022-08-30T07:26:49.780Z,10.98
2022-08-30T07:30:51.461Z,9.80
2022-08-30T07:34:52.953Z,9.50
2022-08-30T07:38:55.013Z,8.75
2022-08-30T07:42:56.619Z,10.07
2022-08-30T07:46:58.129Z,9.57
2022-08-30T07:51:04.557Z,8.80
2022-08-30T07:55:07.073Z,8.75
2022-08-30T07:59:08.556Z,8.75
2022-08-30T08:03:10.368Z,8.52
2022-08-30T08:07:12.629Z,7.90
2022-08-30T08:11:23.571Z,7.18
2022-08-30T08:15:26.360Z,8.45
2022-08-30T08:19:27.861Z,7.03
2022-08-30T08:23:29.668Z,6.85
2022-08-30T08:27:31.577Z,6.25
2022-08-30T08:31:33.639Z,6.20
2022-08-30T08:35:35.469Z,6.45
2022-08-30T08:39:37.080Z,6.30
2022-08-30T08:43:39.006Z,6.60
2022-08-30T08:47:47.681Z,5.82
2022-08-30T08:52:10.566Z,5.97
2022-08-30T08:56:15.027Z,6.93
2022-08-30T09:00:16.581Z,5.95
2022-08-30T09:04:23.061Z,5.82
2022-08-30T09:08:24.751Z,4.72
2022-08-30T09:12:27.538Z,5.75
2022-08-30T09:16:58.302Z,5.57
2022-08-30T09:21:07.689Z,4.57
2022-08-30T09:25:12.150Z,5.45
2022-08-30T09:29:18.435Z,6.07
2022-08-30T09:33:21.113Z,5.22
2022-08-30T09:37:26.782Z,5.32
2022-08-30T09:41:40.082Z,4.88
2022-08-30T09:45:44.230Z,5.47
2022-08-30T09:49:45.852Z,4.00
2022-08-30T09:58:43.593Z,4.53
2022-08-30T10:03:36.332Z,5.05
2022-08-30T10:08:17.713Z,4.97
2022-08-30T10:16:48.578Z,4.45
2022-08-30T10:21:22.362Z,4.18
2022-08-30T10:25:44.064Z,4.22
2022-08-30T10:29:59.400Z,4.85
2022-08-30T10:34:06.905Z,4.97
2022-08-30T10:38:22.527Z,4.77
2022-08-30T10:42:30.919Z,5.35
2022-08-30T10:46:58.326Z,5.03
2022-08-30T10:51:04.706Z,4.50
2022-08-30T10:55:10.344Z,4.40
2022-08-30T10:59:12.171Z,4.72
2022-08-30T11:03:54.409Z,4.40
2022-08-30T11:08:22.002Z,4.25
2022-08-30T11:12:50.418Z,4.57
2022-08-30T11:16:55.353Z,3.75
2022-08-30T11:21:54.614Z,4.22
2022-08-30T11:26:07.895Z,3.25
2022-08-30T11:30:26.989Z,4.13
2022-08-30T11:34:54.410Z,5.03
2022-08-30T11:42:57.288Z,4.80
2022-08-30T11:47:00.366Z,4.32
2022-08-30T11:51:11.048Z,4.53
2022-08-30T11:55:36.867Z,4.25
2022-08-30T12:00:05.179Z,4.63
2022-08-30T12:04:26.571Z,4.15
2022-08-30T12:08:28.417Z,4.00
2022-08-30T12:12:29.935Z,3.78
2022-08-30T12:17:03.955Z,4.03
2022-08-30T12:21:28.142Z,4.78
2022-08-30T12:25:35.095Z,4.10
2022-08-30T12:29:36.679Z,4.88
2022-08-30T12:33:54.062Z,4.32
2022-08-30T12:38:11.995Z,4.55
2022-08-30T12:42:26.986Z,4.40
2022-08-30T12:46:30.200Z,4.15
2022-08-30T12:50:36.491Z,3.63
2022-08-30T12:54:40.091Z,3.95
2022-08-30T12:58:45.810Z,4.32
2022-08-30T13:02:53.223Z,3.38
2022-08-30T13:06:58.520Z,3.83
2022-08-30T13:11:09.614Z,3.72
2022-08-30T13:15:20.150Z,4.35
2022-08-30T13:19:36.710Z,3.40
2022-08-30T13:23:38.169Z,3.65
2022-08-30T13:27:40.011Z,3.60
2022-08-30T13:31:41.874Z,3.72
2022-08-30T13:35:45.225Z,4.18
2022-08-30T13:39:46.640Z,4.43
2022-08-30T13:48:11.369Z,4.82
2022-08-30T13:52:22.167Z,4.10
2022-08-30T13:56:32.206Z,3.15
2022-08-30T14:00:37.834Z,3.75
2022-08-30T14:04:39.581Z,4.18
2022-08-30T14:08:45.161Z,3.72
2022-08-30T14:13:00.569Z,3.60
2022-08-30T14:17:09.262Z,4.53
2022-08-30T14:21:10.939Z,4.25
2022-08-30T14:25:12.506Z,3.83
2022-08-30T14:29:18.103Z,3.72
2022-08-30T14:33:19.778Z,3.88
2022-08-30T14:37:21.545Z,3.83
2022-08-30T14:41:23.142Z,3.25
2022-08-30T14:45:24.700Z,4.55
2022-08-30T14:49:26.956Z,4.22
2022-08-30T14:53:28.905Z,4.25
2022-08-30T14:57:30.325Z,4.00
2022-08-30T15:01:32.186Z,4.50
2022-08-30T15:05:38.676Z,3.50
2022-08-30T15:09:40.101Z,4.43
2022-08-30T15:13:44.358Z,3.58
2022-08-30T15:17:47.551Z,4.00
2022-08-30T15:21:51.149Z,3.90
2022-08-30T15:25:52.645Z,4.30
2022-08-30T15:29:54.297Z,3.75
2022-08-30T15:33:57.772Z,3.58
2022-08-30T15:38:04.645Z,3.55
2022-08-30T15:42:06.231Z,4.10
2022-08-30T15:46:30.170Z,4.85
2022-08-30T15:50:31.974Z,3.97
2022-08-30T15:54:33.500Z,4.03
2022-08-30T15:58:37.547Z,3.60
2022-08-30T16:02:39.120Z,4.22
2022-08-30T16:06:41.772Z,4.80
2022-08-30T16:10:43.370Z,4.20
2022-08-30T16:14:44.991Z,4.22
2022-08-30T16:18:53.934Z,4.47
2022-08-30T16:22:56.277Z,3.60
2022-08-30T16:26:58.040Z,4.60
2022-08-30T16:31:02.951Z,3.50
2022-08-30T16:35:07.557Z,3.90
2022-08-30T16:39:09.300Z,4.90
2022-08-30T16:43:11.156Z,4.35
2022-08-30T16:47:13.537Z,4.50
2022-08-30T16:51:18.502Z,4.43
2022-08-30T16:55:20.333Z,3.60
2022-08-30T16:59:23.301Z,4.55
2022-08-30T17:03:25.389Z,3.97
2022-08-30T17:07:26.847Z,4.82
2022-08-30T17:11:31.025Z,3.88
2022-08-30T17:15:32.887Z,4.22
2022-08-30T17:19:39.852Z,4.80
2022-08-30T17:23:43.653Z,3.95
2022-08-30T17:27:46.354Z,4.57
2022-08-30T17:31:51.368Z,3.92
2022-08-30T17:35:54.239Z,4.53
2022-08-30T17:39:59.314Z,4.57
2022-08-30T17:44:00.765Z,4.32
2022-08-30T17:48:02.468Z,4.30
2022-08-30T17:52:04.491Z,4.50
2022-08-30T17:56:06.551Z,5.45
2022-08-30T18:00:15.821Z,5.32
2022-08-30T18:04:19.583Z,4.82
2022-08-30T18:08:21.386Z,4.85
2022-08-30T18:12:22.942Z,4.00
2022-08-30T18:16:26.209Z,5.07
2022-08-30T18:20:28.303Z,5.20
2022-08-30T18:24:32.818Z,5.00
2022-08-30T18:28:34.353Z,4.30
2022-08-30T18:32:38.020Z,5.15
2022-08-30T18:36:40.574Z,4.50
2022-08-30T18:40:43.718Z,4.72
2022-08-30T18:44:45.264Z,4.68
2022-08-30T18:48:49.080Z,5.20
2022-08-30T18:52:52.611Z,4.32
2022-08-30T18:56:57.537Z,3.95
2022-08-30T19:00:58.953Z,4.38
2022-08-30T19:05:00.521Z,3.90
2022-08-30T19:09:02.320Z,4.05
2022-08-30T19:13:10.439Z,4.75
2022-08-30T19:17:12.313Z,3.88
2022-08-30T19:21:13.908Z,4.50
2022-08-30T19:25:17.927Z,4.00
2022-08-30T19:29:20.287Z,4.50
2022-08-30T19:33:21.711Z,4.70
2022-08-30T19:37:23.201Z,4.28
2022-08-30T19:41:24.809Z,4.28
2022-08-30T19:45:26.736Z,4.60
2022-08-30T19:49:28.157Z,4.28
2022-08-30T19:53:29.829Z,4.20
2022-08-30T19:57:31.510Z,4.70
2022-08-30T20:01:34.003Z,3.80
2022-08-30T20:05:35.772Z,5.03
2022-08-30T20:09:37.624Z,4.50
2022-08-30T20:13:39.118Z,4.50
2022-08-30T20:18:02.493Z,4.03
2022-08-30T20:22:08.025Z,3.80
2022-08-30T20:26:11.166Z,4.80
2022-08-30T20:30:14.541Z,4.03
2022-08-30T20:34:16.136Z,3.67
2022-08-30T20:38:22.106Z,4.40
2022-08-30T20:42:25.606Z,4.50
2022-08-30T20:46:32.012Z,3.83
2022-08-30T20:50:35.377Z,4.53
2022-08-30T20:54:37.269Z,3.45
2022-08-30T20:58:38.719Z,3.50
2022-08-30T21:02:46.454Z,4.22
2022-08-30T21:06:48.607Z,3.97
2022-08-30T21:10:53.492Z,3.45
2022-08-30T21:14:55.150Z,4.15
2022-08-30T21:18:57.079Z,3.88
2022-08-30T21:22:58.699Z,3.85
2022-08-30T21:27:00.499Z,4.00
2022-08-30T21:31:07.007Z,3.50
2022-08-30T21:35:27.786Z,3.63
2022-08-30T21:39:29.685Z,3.53
2022-08-30T21:43:31.087Z,3.38
2022-08-30T21:47:32.926Z,3.78
2022-08-30T21:51:37.560Z,3.72
2022-08-30T21:55:39.040Z,3.47
2022-08-30T21:59:41.747Z,3.25
2022-08-30T22:03:44.398Z,3.85
2022-08-30T22:07:45.994Z,3.08
2022-08-30T22:11:48.004Z,3.58
2022-08-30T22:15:51.537Z,3.17
2022-08-30T22:19:54.025Z,3.08
2022-08-30T22:23:56.401Z,3.10
2022-08-30T22:27:58.001Z,3.95
2022-08-30T22:32:00.125Z,3.10
2022-08-30T22:36:08.753Z,2.78
2022-08-30T22:40:10.461Z,3.17
2022-08-30T22:44:12.101Z,3.35
2022-08-30T22:48:13.613Z,3.83
2022-08-30T22:52:15.073Z,3.10
2022-08-30T22:56:20.004Z,4.45
2022-08-30T23:00:21.713Z,3.53
2022-08-30T23:04:23.121Z,3.67
2022-08-30T23:08:27.402Z,3.00
2022-08-30T23:12:29.063Z,2.95
2022-08-30T23:16:30.990Z,3.65
2022-08-30T23:20:33.053Z,2.78
2022-08-30T23:24:53.092Z,3.05
2022-08-30T23:29:14.456Z,2.80
2022-08-30T23:33:34.943Z,3.08
2022-08-30T23:37:55.432Z,4.05
2022-08-30T23:42:15.368Z,2.78
2022-08-30T23:46:35.569Z,2.83
2022-08-30T23:50:55.677Z,3.17
2022-08-30T23:55:15.875Z,3.22
2022-08-30T23:59:36.069Z,2.78
